createdAt,value
2017-10-15T00:01:34.709Z,71.40
2017-10-15T00:04:02.165Z,71.50
2017-10-15T00:06:29.647Z,70.90
2017-10-15T00:08:57.094Z,71.50
2017-10-15T00:11:24.536Z,70.90
2017-10-15T00:13:51.976Z,70.50
2017-10-15T00:16:19.417Z,70.50
2017-10-15T00:18:46.870Z,70.80
2017-10-15T00:21:14.316Z,70.90
2017-10-15T00:23:41.768Z,70.80
2017-10-15T00:26:09.210Z,70.70
2017-10-15T00:28:37.464Z,70.90
2017-10-15T00:31:04.906Z,71.40
2017-10-15T00:33:32.351Z,71.60
2017-10-15T00:35:59.796Z,71.70
2017-10-15T00:38:27.232Z,71.40
2017-10-15T00:40:54.685Z,71.30
2017-10-15T00:43:22.133Z,71.00
2017-10-15T00:45:49.589Z,70.60
2017-10-15T00:48:17.042Z,70.50
2017-10-15T00:50:45.253Z,70.60
2017-10-15T00:53:12.717Z,70.60
2017-10-15T00:55:40.161Z,70.60
2017-10-15T00:58:07.608Z,70.90
2017-10-15T01:00:35.052Z,70.90
2017-10-15T01:03:02.492Z,70.90
2017-10-15T01:05:29.955Z,70.90
2017-10-15T01:07:57.392Z,71.00
2017-10-15T01:10:25.612Z,70.40
2017-10-15T01:12:53.054Z,70.40
2017-10-15T01:15:20.497Z,70.40
2017-10-15T01:17:47.946Z,70.30
2017-10-15T01:20:15.403Z,70.40
2017-10-15T01:22:42.845Z,70.90
2017-10-15T01:25:10.308Z,71.50
2017-10-15T01:27:37.758Z,71.90
2017-10-15T01:30:05.981Z,72.30
2017-10-15T01:32:33.424Z,72.20
2017-10-15T01:35:00.867Z,71.90
2017-10-15T01:37:28.336Z,72.50
2017-10-15T01:39:55.781Z,72.30
2017-10-15T01:42:23.254Z,72.10
2017-10-15T01:44:51.481Z,72.10
2017-10-15T01:47:18.935Z,72.10
2017-10-15T01:49:46.446Z,72.00
2017-10-15T01:52:13.889Z,72.40
2017-10-15T01:54:41.357Z,72.20
2017-10-15T01:57:08.804Z,72.20
2017-10-15T01:59:36.248Z,72.40
2017-10-15T02:02:03.700Z,72.50
2017-10-15T02:04:31.910Z,72.80
2017-10-15T02:06:59.372Z,72.80
2017-10-15T02:09:26.805Z,72.50
2017-10-15T02:11:54.256Z,72.60
2017-10-15T02:14:21.702Z,72.60
2017-10-15T02:16:49.152Z,72.70
2017-10-15T02:19:16.601Z,72.60
2017-10-15T02:21:44.055Z,72.40
2017-10-15T02:24:12.274Z,72.80
2017-10-15T02:26:39.729Z,73.80
2017-10-15T02:29:07.168Z,72.30
2017-10-15T02:31:34.637Z,72.10
2017-10-15T02:34:02.080Z,71.90
2017-10-15T02:36:29.541Z,71.90
2017-10-15T02:38:56.986Z,72.30
2017-10-15T02:41:24.441Z,72.60
2017-10-15T02:43:51.893Z,72.90
2017-10-15T02:46:19.352Z,72.90
2017-10-15T02:48:46.801Z,72.60
2017-10-15T02:51:14.252Z,72.60
2017-10-15T02:53:41.705Z,72.70
2017-10-15T02:56:09.162Z,72.60
2017-10-15T02:58:37.372Z,72.40
2017-10-15T03:01:04.829Z,72.40
2017-10-15T03:03:32.287Z,72.20
2017-10-15T03:05:59.756Z,72.30
2017-10-15T03:08:27.964Z,74.30
2017-10-15T03:10:55.402Z,74.40
2017-10-15T03:13:22.844Z,74.20
2017-10-15T03:15:50.281Z,74.40
2017-10-15T03:18:17.749Z,74.10
2017-10-15T03:20:45.201Z,74.50
2017-10-15T03:23:12.635Z,73.80
2017-10-15T03:25:40.848Z,73.80
2017-10-15T03:28:08.290Z,73.30
2017-10-15T03:30:35.746Z,73.70
2017-10-15T03:33:03.197Z,73.70
2017-10-15T03:35:31.456Z,73.80
2017-10-15T03:37:58.910Z,73.70
2017-10-15T03:40:26.403Z,73.60
2017-10-15T03:42:53.830Z,73.60
2017-10-15T03:45:21.277Z,73.70
2017-10-15T03:47:48.723Z,73.90
2017-10-15T03:50:16.158Z,74.30
2017-10-15T03:52:43.588Z,73.30
2017-10-15T03:55:11.028Z,73.00
2017-10-15T03:57:38.468Z,73.20
2017-10-15T04:00:05.912Z,73.10
2017-10-15T04:02:33.344Z,73.20
2017-10-15T04:05:00.898Z,73.10
2017-10-15T04:07:28.326Z,73.50
2017-10-15T04:09:55.768Z,73.00
2017-10-15T04:12:23.195Z,72.90
2017-10-15T04:14:50.647Z,72.40
2017-10-15T04:17:18.083Z,72.20
2017-10-15T04:19:45.540Z,72.70
2017-10-15T04:22:12.972Z,72.80
2017-10-15T04:24:40.409Z,72.90
2017-10-15T04:27:07.837Z,73.20
2017-10-15T04:29:36.041Z,72.80
2017-10-15T04:32:03.476Z,73.50
2017-10-15T04:34:30.939Z,72.80
2017-10-15T04:36:58.381Z,73.20
2017-10-15T04:39:25.828Z,73.10
2017-10-15T04:41:53.264Z,73.00
2017-10-15T04:44:20.706Z,73.10
2017-10-15T04:46:48.139Z,73.20
2017-10-15T04:49:15.572Z,72.80
2017-10-15T04:51:43.020Z,72.60
2017-10-15T04:54:10.467Z,72.80
2017-10-15T04:56:37.905Z,72.40
2017-10-15T04:59:05.331Z,72.30
2017-10-15T05:01:33.554Z,72.30
2017-10-15T05:04:00.987Z,72.30
2017-10-15T05:06:28.415Z,72.50
2017-10-15T05:08:55.873Z,72.30
2017-10-15T05:11:23.313Z,72.70
2017-10-15T05:13:50.761Z,72.80
2017-10-15T05:16:18.229Z,72.70
2017-10-15T05:18:45.665Z,72.50
2017-10-15T05:21:13.106Z,73.00
2017-10-15T05:23:40.576Z,72.60
2017-10-15T05:26:08.029Z,72.90
2017-10-15T05:28:35.753Z,72.50
2017-10-15T05:31:03.180Z,72.30
2017-10-15T05:33:30.632Z,72.40
2017-10-15T05:35:58.066Z,72.40
2017-10-15T05:38:25.523Z,72.40
2017-10-15T05:40:52.989Z,72.60
2017-10-15T05:43:20.425Z,73.20
2017-10-15T05:45:47.851Z,72.40
2017-10-15T05:48:15.284Z,72.40
2017-10-15T05:50:42.719Z,72.60
2017-10-15T05:53:10.160Z,73.00
2017-10-15T05:55:37.606Z,73.50
2017-10-15T05:58:05.036Z,73.30
2017-10-15T06:00:32.472Z,73.50
2017-10-15T06:02:59.909Z,73.40
2017-10-15T06:05:28.109Z,74.50
2017-10-15T06:07:55.552Z,74.50
2017-10-15T06:10:22.988Z,74.30
2017-10-15T06:12:50.419Z,74.00
2017-10-15T06:15:17.870Z,73.60
2017-10-15T06:17:45.330Z,73.80
2017-10-15T06:20:12.783Z,74.00
2017-10-15T06:22:40.208Z,74.20
2017-10-15T06:25:07.652Z,74.00
2017-10-15T06:27:35.076Z,74.20
2017-10-15T06:30:02.529Z,74.30
2017-10-15T06:32:29.969Z,74.10
2017-10-15T06:34:57.412Z,74.00
2017-10-15T06:37:24.844Z,73.90
2017-10-15T06:39:53.192Z,73.80
2017-10-15T06:42:20.624Z,73.70
2017-10-15T06:44:48.078Z,73.70
2017-10-15T06:47:15.516Z,73.70
2017-10-15T06:49:42.963Z,72.90
2017-10-15T06:52:10.405Z,72.50
2017-10-15T06:54:37.850Z,72.50
2017-10-15T06:57:05.292Z,72.10
2017-10-15T06:59:32.747Z,71.80
2017-10-15T07:02:00.192Z,71.00
2017-10-15T07:04:27.644Z,70.40
2017-10-15T07:06:55.840Z,69.70
2017-10-15T07:09:23.298Z,69.70
2017-10-15T07:11:50.726Z,67.90
2017-10-15T07:14:18.181Z,66.10
2017-10-15T07:16:45.626Z,65.60
2017-10-15T07:19:13.084Z,64.20
2017-10-15T07:21:40.521Z,63.40
2017-10-15T07:24:07.952Z,62.00
2017-10-15T07:26:35.409Z,61.60
2017-10-15T07:29:02.848Z,60.50
2017-10-15T07:31:30.287Z,59.10
2017-10-15T07:33:57.724Z,58.00
2017-10-15T07:36:25.160Z,57.00
2017-10-15T07:38:52.592Z,56.30
2017-10-15T07:41:20.808Z,55.30
2017-10-15T07:43:49.021Z,54.60
2017-10-15T07:46:16.484Z,54.20
2017-10-15T07:48:43.926Z,53.90
2017-10-15T07:51:11.361Z,53.10
2017-10-15T07:53:38.807Z,53.20
2017-10-15T07:56:06.236Z,52.30
2017-10-15T07:58:33.693Z,52.80
2017-10-15T08:01:01.137Z,52.50
2017-10-15T08:03:28.569Z,52.30
2017-10-15T08:05:56.011Z,51.80
2017-10-15T08:08:23.451Z,51.20
2017-10-15T08:10:50.934Z,51.30
2017-10-15T08:13:18.396Z,50.50
2017-10-15T08:15:45.853Z,52.10
2017-10-15T08:18:14.077Z,51.50
2017-10-15T08:20:41.509Z,51.40
2017-10-15T08:23:08.966Z,51.40
2017-10-15T08:25:36.420Z,51.40
2017-10-15T08:28:03.866Z,52.00
2017-10-15T08:30:31.321Z,52.10
2017-10-15T08:32:58.776Z,52.40
2017-10-15T08:35:26.976Z,52.80
2017-10-15T08:37:54.432Z,52.80
2017-10-15T08:40:21.872Z,53.00
2017-10-15T08:42:49.314Z,52.70
2017-10-15T08:45:16.756Z,53.60
2017-10-15T08:47:44.212Z,53.60
2017-10-15T08:50:11.689Z,53.80
2017-10-15T08:52:39.888Z,54.80
2017-10-15T08:55:07.344Z,54.80
2017-10-15T08:57:34.824Z,55.10
2017-10-15T09:00:03.034Z,55.70
2017-10-15T09:02:30.511Z,55.70
2017-10-15T09:04:57.956Z,55.40
2017-10-15T09:07:25.424Z,55.90
2017-10-15T09:09:52.904Z,56.30
2017-10-15T09:12:20.352Z,56.50
2017-10-15T09:14:47.792Z,56.20
2017-10-15T09:17:15.233Z,56.10
2017-10-15T09:19:42.717Z,56.50
2017-10-15T09:22:10.180Z,56.60
2017-10-15T09:24:37.662Z,57.20
2017-10-15T09:27:05.095Z,56.90
2017-10-15T09:29:32.531Z,56.60
2017-10-15T09:31:59.978Z,56.10
2017-10-15T09:34:27.419Z,55.50
2017-10-15T09:36:54.865Z,55.10
2017-10-15T09:39:23.076Z,54.90
2017-10-15T09:41:50.536Z,54.80
2017-10-15T09:44:18.016Z,54.00
2017-10-15T09:46:45.454Z,53.20
2017-10-15T09:49:13.661Z,52.80
2017-10-15T09:51:41.099Z,52.70
2017-10-15T09:54:08.571Z,51.70
2017-10-15T09:56:36.004Z,51.00
2017-10-15T09:59:03.448Z,50.50
2017-10-15T10:01:30.985Z,50.20
2017-10-15T10:03:58.428Z,49.60
2017-10-15T10:06:25.881Z,48.90
2017-10-15T10:08:53.382Z,48.80
2017-10-15T10:11:20.817Z,47.70
2017-10-15T10:13:49.022Z,46.80
2017-10-15T10:16:16.465Z,46.90
2017-10-15T10:18:44.000Z,46.40
2017-10-15T10:21:11.423Z,46.70
2017-10-15T10:23:38.852Z,46.20
2017-10-15T10:26:06.289Z,45.60
2017-10-15T10:28:34.501Z,46.10
2017-10-15T10:31:01.945Z,46.00
2017-10-15T10:33:29.376Z,45.80
2017-10-15T10:35:56.847Z,45.50
2017-10-15T10:38:24.289Z,46.00
2017-10-15T10:40:51.733Z,45.60
2017-10-15T10:43:19.168Z,45.80
2017-10-15T10:45:46.612Z,46.00
2017-10-15T10:48:14.040Z,46.20
2017-10-15T10:50:41.476Z,45.80
2017-10-15T10:53:08.906Z,45.30
2017-10-15T10:55:36.460Z,46.70
2017-10-15T10:58:03.892Z,46.80
2017-10-15T11:00:31.376Z,47.60
2017-10-15T11:02:58.927Z,47.70
2017-10-15T11:05:26.368Z,47.70
2017-10-15T11:07:53.804Z,47.80
2017-10-15T11:10:21.253Z,48.20
2017-10-15T11:12:48.692Z,49.00
2017-10-15T11:15:16.129Z,49.20
2017-10-15T11:17:43.681Z,48.80
2017-10-15T11:20:11.136Z,49.00
2017-10-15T11:22:38.580Z,48.80
2017-10-15T11:25:06.009Z,49.30
2017-10-15T11:27:33.458Z,50.60
2017-10-15T11:30:00.888Z,50.10
2017-10-15T11:32:28.338Z,51.30
2017-10-15T11:34:55.777Z,51.30
2017-10-15T11:37:23.905Z,50.90
2017-10-15T11:39:51.342Z,50.90
2017-10-15T11:42:18.789Z,50.30
2017-10-15T11:44:46.212Z,50.70
2017-10-15T11:47:13.687Z,50.50
2017-10-15T11:49:41.892Z,50.00
2017-10-15T11:52:09.353Z,50.00
2017-10-15T11:54:36.847Z,50.20
2017-10-15T11:57:04.290Z,50.40
2017-10-15T11:59:32.492Z,51.00
2017-10-15T12:01:59.948Z,51.00
2017-10-15T12:04:27.395Z,50.90
2017-10-15T12:06:54.837Z,51.00
2017-10-15T12:09:22.345Z,50.80
2017-10-15T12:11:49.933Z,51.10
2017-10-15T12:14:17.389Z,51.30
2017-10-15T12:16:45.605Z,50.70
2017-10-15T12:19:13.041Z,50.70
2017-10-15T12:21:40.487Z,50.50
2017-10-15T12:24:07.975Z,51.00
2017-10-15T12:26:35.401Z,50.60
2017-10-15T12:29:02.835Z,50.50
2017-10-15T12:31:30.276Z,50.70
2017-10-15T12:33:57.737Z,50.70
2017-10-15T12:36:25.173Z,50.40
2017-10-15T12:38:52.621Z,50.30
2017-10-15T12:41:20.078Z,50.10
2017-10-15T12:43:47.554Z,49.00
2017-10-15T12:46:14.979Z,49.40
2017-10-15T12:48:43.189Z,48.70
2017-10-15T12:51:10.632Z,48.70
2017-10-15T12:53:38.112Z,48.90
2017-10-15T12:56:05.541Z,48.90
2017-10-15T12:58:33.069Z,48.60
2017-10-15T13:01:00.509Z,48.30
2017-10-15T13:03:27.945Z,48.40
2017-10-15T13:05:55.377Z,48.60
2017-10-15T13:08:22.826Z,49.30
2017-10-15T13:10:50.326Z,48.80
2017-10-15T13:13:18.513Z,48.00
2017-10-15T13:15:45.955Z,48.00
2017-10-15T13:18:13.398Z,49.80
2017-10-15T13:20:40.828Z,51.30
2017-10-15T13:23:08.252Z,53.20
2017-10-15T13:25:36.481Z,54.60
2017-10-15T13:28:03.937Z,54.60
2017-10-15T13:30:31.417Z,54.10
2017-10-15T13:32:58.852Z,54.30
2017-10-15T13:35:26.306Z,54.30
2017-10-15T13:37:53.749Z,54.30
2017-10-15T13:40:21.187Z,54.20
2017-10-15T13:42:48.675Z,54.30
2017-10-15T13:45:16.112Z,54.30
2017-10-15T13:47:43.564Z,54.30
2017-10-15T13:50:11.009Z,54.20
2017-10-15T13:52:38.460Z,53.90
2017-10-15T13:55:05.876Z,53.50
2017-10-15T13:57:33.313Z,53.20
2017-10-15T14:00:00.739Z,52.70
2017-10-15T14:02:28.196Z,52.70
2017-10-15T14:04:55.609Z,52.70
2017-10-15T14:07:23.037Z,52.30
2017-10-15T14:09:51.337Z,52.70
2017-10-15T14:12:18.764Z,52.70
2017-10-15T14:14:46.199Z,53.30
2017-10-15T14:17:13.669Z,52.70
2017-10-15T14:19:41.107Z,52.70
2017-10-15T14:22:08.564Z,52.40
2017-10-15T14:24:36.007Z,51.70
2017-10-15T14:27:03.456Z,51.70
2017-10-15T14:29:30.892Z,51.30
2017-10-15T14:31:58.340Z,50.80
2017-10-15T14:34:25.779Z,48.90
2017-10-15T14:36:53.220Z,49.20
2017-10-15T14:39:20.693Z,49.50
2017-10-15T14:41:48.881Z,50.60
2017-10-15T14:44:16.340Z,50.50
2017-10-15T14:46:43.799Z,50.90
2017-10-15T14:49:11.223Z,51.40
2017-10-15T14:51:38.658Z,51.80
2017-10-15T14:54:06.101Z,51.70
2017-10-15T14:56:33.534Z,51.80
2017-10-15T14:59:00.964Z,51.50
2017-10-15T15:01:28.395Z,51.60
2017-10-15T15:03:55.839Z,51.30
2017-10-15T15:06:23.260Z,51.70
2017-10-15T15:08:50.736Z,52.40
2017-10-15T15:11:18.181Z,52.50
2017-10-15T15:13:45.609Z,52.80
2017-10-15T15:16:13.045Z,53.20
2017-10-15T15:18:41.245Z,53.70
2017-10-15T15:21:08.672Z,53.70
2017-10-15T15:23:36.226Z,53.60
2017-10-15T15:26:03.640Z,53.70
2017-10-15T15:31:05.041Z,54.10
2017-10-15T15:33:32.576Z,54.50
2017-10-15T15:36:00.016Z,55.10
2017-10-15T15:38:27.461Z,55.30
2017-10-15T15:40:54.905Z,55.50
2017-10-15T15:43:22.344Z,55.90
2017-10-15T15:45:49.797Z,56.40
2017-10-15T15:48:18.017Z,56.80
2017-10-15T15:50:45.458Z,56.70
2017-10-15T15:53:12.901Z,56.90
2017-10-15T15:55:41.132Z,57.10
2017-10-15T15:58:08.725Z,57.20
2017-10-15T16:00:36.173Z,57.40
2017-10-15T16:03:03.611Z,57.20
2017-10-15T16:05:31.066Z,57.20
2017-10-15T16:07:58.505Z,57.20
2017-10-15T16:10:25.942Z,57.40
2017-10-15T16:12:53.376Z,57.50
2017-10-15T16:15:21.564Z,57.80
2017-10-15T16:17:49.153Z,57.70
2017-10-15T16:20:16.608Z,58.00
2017-10-15T16:22:44.040Z,58.00
2017-10-15T16:25:11.477Z,58.20
2017-10-15T16:27:39.013Z,58.30
2017-10-15T16:30:06.590Z,58.50
2017-10-15T16:32:34.026Z,58.60
2017-10-15T16:35:01.471Z,59.00
2017-10-15T16:37:28.908Z,59.40
2017-10-15T16:39:56.344Z,59.40
2017-10-15T16:42:23.793Z,59.90
2017-10-15T16:44:51.446Z,60.00
2017-10-15T16:47:18.901Z,60.30
2017-10-15T16:49:46.353Z,60.70
2017-10-15T16:52:13.860Z,60.90
2017-10-15T16:54:41.297Z,61.50
2017-10-15T16:57:08.740Z,61.90
2017-10-15T16:59:36.185Z,62.10
2017-10-15T17:02:03.641Z,62.60
2017-10-15T17:04:31.080Z,62.90
2017-10-15T17:06:58.534Z,63.00
2017-10-15T17:09:25.971Z,63.70
2017-10-15T17:11:53.425Z,63.80
2017-10-15T17:14:20.864Z,64.70
2017-10-15T17:16:48.311Z,64.60
2017-10-15T17:19:15.745Z,65.00
2017-10-15T17:21:43.224Z,65.30
2017-10-15T17:24:11.452Z,65.70
2017-10-15T17:26:38.924Z,65.70
2017-10-15T17:29:06.380Z,65.90
2017-10-15T17:31:33.831Z,66.40
2017-10-15T17:34:02.037Z,67.00
2017-10-15T17:36:29.470Z,67.00
2017-10-15T17:38:57.767Z,67.10
2017-10-15T17:41:25.961Z,67.50
2017-10-15T17:43:53.404Z,67.30
2017-10-15T17:46:20.843Z,67.50
2017-10-15T17:48:48.310Z,67.70
2017-10-15T17:51:15.740Z,68.00
2017-10-15T17:53:43.288Z,70.50
2017-10-15T17:56:10.909Z,73.30
2017-10-15T17:58:38.357Z,70.40
2017-10-15T18:01:05.796Z,71.30
2017-10-15T18:03:33.232Z,69.60
2017-10-15T18:06:00.696Z,69.10
2017-10-15T18:08:28.132Z,69.20
2017-10-15T18:10:55.579Z,69.40
2017-10-15T18:13:23.021Z,69.50
2017-10-15T18:15:50.452Z,69.60
2017-10-15T18:18:17.994Z,70.00
2017-10-15T18:20:45.519Z,70.10
2017-10-15T18:23:13.726Z,70.30
2017-10-15T18:25:41.235Z,70.30
2017-10-15T18:28:08.684Z,70.30
2017-10-15T18:30:36.144Z,70.50
2017-10-15T18:33:03.568Z,70.90
2017-10-15T18:35:31.012Z,71.30
2017-10-15T18:37:58.445Z,71.70
2017-10-15T18:40:25.888Z,71.90
2017-10-15T18:42:53.338Z,72.10
2017-10-15T18:45:20.802Z,72.60
2017-10-15T18:47:48.235Z,72.70
2017-10-15T18:50:16.443Z,73.20
2017-10-15T18:52:43.905Z,73.20
2017-10-15T18:55:11.375Z,73.10
2017-10-15T18:57:39.604Z,73.90
2017-10-15T19:00:07.055Z,73.90
2017-10-15T19:02:34.676Z,73.90
2017-10-15T19:05:02.105Z,74.00
2017-10-15T19:07:29.556Z,74.20
2017-10-15T19:09:57.003Z,74.30
2017-10-15T19:12:24.444Z,74.50
2017-10-15T19:14:51.898Z,75.40
2017-10-15T19:17:19.361Z,75.10
2017-10-15T19:19:46.816Z,74.80
2017-10-15T19:22:15.028Z,75.10
2017-10-15T19:24:42.507Z,75.10
2017-10-15T19:27:09.955Z,75.40
2017-10-15T19:29:37.393Z,75.20
2017-10-15T19:32:04.836Z,75.00
2017-10-15T19:34:32.294Z,75.20
2017-10-15T19:37:00.509Z,74.80
2017-10-15T19:39:27.970Z,74.80
2017-10-15T19:41:55.421Z,74.90
2017-10-15T19:44:23.633Z,75.40
2017-10-15T19:46:51.844Z,75.40
2017-10-15T19:49:19.276Z,75.40
2017-10-15T19:51:46.732Z,75.60
2017-10-15T19:54:14.192Z,75.60
2017-10-15T19:56:41.636Z,75.70
2017-10-15T19:59:09.095Z,76.20
2017-10-15T20:01:37.322Z,76.10
2017-10-15T20:04:04.764Z,76.10
2017-10-15T20:06:32.220Z,76.10
2017-10-15T20:08:59.689Z,76.30
2017-10-15T20:11:27.890Z,76.60
2017-10-15T20:13:55.350Z,76.30
2017-10-15T20:16:22.824Z,76.40
2017-10-15T20:18:50.266Z,76.40
2017-10-15T20:21:17.701Z,76.50
2017-10-15T20:23:45.145Z,76.50
2017-10-15T20:26:12.584Z,76.80
2017-10-15T20:28:40.053Z,76.80
2017-10-15T20:31:08.244Z,76.70
2017-10-15T20:33:35.739Z,76.60
2017-10-15T20:36:03.294Z,76.80
2017-10-15T20:38:31.496Z,76.80
2017-10-15T20:40:58.930Z,76.80
2017-10-15T20:43:26.385Z,77.00
2017-10-15T20:45:53.853Z,77.40
2017-10-15T20:48:21.271Z,77.40
2017-10-15T20:50:48.720Z,77.50
2017-10-15T20:53:16.210Z,77.10
2017-10-15T20:55:44.415Z,77.30
2017-10-15T20:58:11.884Z,77.40
2017-10-15T21:00:39.341Z,77.20
2017-10-15T21:03:07.552Z,77.60
2017-10-15T21:05:34.984Z,77.60
2017-10-15T21:08:02.435Z,78.00
2017-10-15T21:10:29.902Z,77.50
2017-10-15T21:12:57.361Z,77.30
2017-10-15T21:15:24.900Z,77.50
2017-10-15T21:17:52.364Z,77.30
2017-10-15T21:20:20.591Z,77.40
2017-10-15T21:22:48.017Z,77.40
2017-10-15T21:25:15.461Z,77.50
2017-10-15T21:27:42.922Z,77.40
2017-10-15T21:30:10.368Z,77.90
2017-10-15T21:32:37.810Z,77.40
2017-10-15T21:35:05.272Z,77.30
2017-10-15T21:37:32.715Z,77.60
2017-10-15T21:40:00.164Z,78.20
2017-10-15T21:42:27.617Z,78.20
2017-10-15T21:44:55.131Z,78.50
2017-10-15T21:47:22.706Z,78.40
2017-10-15T21:49:50.144Z,78.00
2017-10-15T21:52:17.604Z,78.30
2017-10-15T21:54:45.047Z,78.50
2017-10-15T21:57:12.497Z,78.30
2017-10-15T21:59:39.940Z,78.10
2017-10-15T22:02:08.159Z,78.00
2017-10-15T22:04:35.608Z,78.00
2017-10-15T22:07:03.040Z,78.20
2017-10-15T22:09:30.487Z,77.90
2017-10-15T22:11:57.945Z,77.90
2017-10-15T22:14:25.464Z,77.20
2017-10-15T22:16:52.904Z,77.30
2017-10-15T22:19:20.340Z,77.80
2017-10-15T22:21:53.363Z,77.80
2017-10-15T22:24:20.819Z,78.00
2017-10-15T22:26:49.053Z,78.10
2017-10-15T22:29:16.487Z,78.10
2017-10-15T22:31:43.958Z,77.90
2017-10-15T22:34:12.152Z,78.30
2017-10-15T22:36:39.603Z,77.70
2017-10-15T22:39:07.814Z,78.10
2017-10-15T22:41:35.337Z,78.00
2017-10-15T22:44:02.790Z,78.00
2017-10-15T22:46:30.260Z,78.10
2017-10-15T22:48:57.759Z,78.30
2017-10-15T22:51:25.973Z,79.10
2017-10-15T22:53:53.409Z,79.10
2017-10-15T22:56:20.871Z,79.20
2017-10-15T22:58:48.308Z,79.60
2017-10-15T23:01:15.773Z,79.40
2017-10-15T23:03:43.225Z,79.80
2017-10-15T23:06:11.445Z,79.50
2017-10-15T23:08:38.893Z,79.60
2017-10-15T23:11:06.357Z,79.30
2017-10-15T23:13:34.576Z,78.90
2017-10-15T23:16:02.024Z,78.80
2017-10-15T23:18:29.478Z,79.00
2017-10-15T23:20:56.937Z,78.70
2017-10-15T23:23:24.396Z,78.80
2017-10-15T23:25:51.832Z,78.70
2017-10-15T23:28:19.276Z,78.50
2017-10-15T23:30:47.500Z,77.70
2017-10-15T23:33:14.969Z,78.20
2017-10-15T23:35:42.403Z,77.70
2017-10-15T23:38:09.849Z,77.30
2017-10-15T23:40:37.289Z,76.50
2017-10-15T23:43:04.745Z,76.00
2017-10-15T23:45:32.189Z,76.30
2017-10-15T23:48:00.408Z,77.50
2017-10-15T23:50:27.852Z,76.80
2017-10-15T23:52:55.308Z,76.40
2017-10-15T23:55:22.749Z,76.30
2017-10-15T23:57:50.272Z,76.60
